createdAt,value
2018-07-11T00:00:49.101Z,4.00
2018-07-11T00:01:49.084Z,4.00
2018-07-11T00:02:49.066Z,4.00
2018-07-11T00:03:49.050Z,4.00
2018-07-11T00:04:49.031Z,4.00
2018-07-11T00:05:49.017Z,4.00
2018-07-11T00:06:48.999Z,4.00
2018-07-11T00:07:48.986Z,4.00
2018-07-11T00:08:48.973Z,4.00
2018-07-11T00:09:48.951Z,4.00
2018-07-11T00:10:48.934Z,4.00
2018-07-11T00:11:48.918Z,4.00
2018-07-11T00:12:48.902Z,4.00
2018-07-11T00:13:48.888Z,4.00
2018-07-11T00:14:48.868Z,4.00
2018-07-11T00:15:48.851Z,4.00
2018-07-11T00:16:48.832Z,4.00
2018-07-11T00:17:48.817Z,4.00
2018-07-11T00:18:48.805Z,4.00
2018-07-11T00:19:48.784Z,4.00
2018-07-11T00:20:48.775Z,4.00
2018-07-11T00:21:48.753Z,4.00
2018-07-11T00:22:48.740Z,4.00
2018-07-11T00:23:48.718Z,4.00
2018-07-11T00:24:48.702Z,4.00
2018-07-11T00:25:48.684Z,4.00
2018-07-11T00:26:48.667Z,4.00
2018-07-11T00:27:48.653Z,4.00
2018-07-11T00:28:48.649Z,4.00
2018-07-11T00:29:48.626Z,4.00
2018-07-11T00:30:48.602Z,4.00
2018-07-11T00:31:48.594Z,4.00
2018-07-11T00:32:48.573Z,4.00
2018-07-11T00:33:48.560Z,4.00
2018-07-11T00:34:48.536Z,4.00
2018-07-11T00:35:48.523Z,4.00
2018-07-11T00:36:48.504Z,4.00
2018-07-11T00:37:48.486Z,4.00
2018-07-11T00:38:48.475Z,4.00
2018-07-11T00:39:48.471Z,4.00
2018-07-11T00:40:48.443Z,4.00
2018-07-11T00:41:48.422Z,4.00
2018-07-11T00:42:48.411Z,4.00
2018-07-11T00:43:48.389Z,4.00
2018-07-11T00:44:48.379Z,4.00
2018-07-11T00:45:48.360Z,4.00
2018-07-11T00:46:48.345Z,4.00
2018-07-11T00:47:48.331Z,4.00
2018-07-11T00:48:48.305Z,4.00
2018-07-11T00:49:48.289Z,4.00
2018-07-11T00:50:48.270Z,4.00
2018-07-11T00:51:48.254Z,4.00
2018-07-11T00:52:48.250Z,4.00
2018-07-11T00:53:48.230Z,4.00
2018-07-11T00:54:48.205Z,4.00
2018-07-11T00:55:48.209Z,4.00
2018-07-11T00:56:48.198Z,4.00
2018-07-11T00:57:48.155Z,4.00
2018-07-11T00:58:48.139Z,4.00
2018-07-11T00:59:48.124Z,4.00
2018-07-11T01:00:48.114Z,4.00
2018-07-11T01:01:48.090Z,4.00
2018-07-11T01:02:48.080Z,4.00
2018-07-11T01:03:48.069Z,4.00
2018-07-11T01:04:48.043Z,4.00
2018-07-11T01:05:48.025Z,4.00
2018-07-11T01:06:48.017Z,4.00
2018-07-11T01:07:47.994Z,4.00
2018-07-11T01:08:47.977Z,4.00
2018-07-11T01:09:47.961Z,4.00
2018-07-11T01:10:47.950Z,4.00
2018-07-11T01:11:47.928Z,4.00
2018-07-11T01:12:47.921Z,4.00
2018-07-11T01:13:47.893Z,4.00
2018-07-11T01:14:47.879Z,4.00
2018-07-11T01:15:47.861Z,4.00
2018-07-11T01:16:47.845Z,4.00
2018-07-11T01:17:47.830Z,4.00
2018-07-11T01:18:47.823Z,4.00
2018-07-11T01:19:47.804Z,4.00
2018-07-11T01:20:47.781Z,4.00
2018-07-11T01:21:47.764Z,4.00
2018-07-11T01:22:47.748Z,4.00
2018-07-11T01:23:47.740Z,4.00
2018-07-11T01:24:47.718Z,4.00
2018-07-11T01:25:47.697Z,4.00
2018-07-11T01:26:47.682Z,4.00
2018-07-11T01:27:47.670Z,4.00
2018-07-11T01:28:47.652Z,4.00
2018-07-11T01:29:47.641Z,4.00
2018-07-11T01:30:47.617Z,4.00
2018-07-11T01:31:47.602Z,4.00
2018-07-11T01:32:47.589Z,4.00
2018-07-11T01:33:47.577Z,4.00
2018-07-11T01:34:47.558Z,4.00
2018-07-11T01:35:47.541Z,4.00
2018-07-11T01:36:47.519Z,4.00
2018-07-11T01:37:47.503Z,4.00
2018-07-11T01:38:47.488Z,4.00
2018-07-11T01:39:47.471Z,4.00
2018-07-11T01:40:47.453Z,4.00
2018-07-11T01:41:47.450Z,4.00
2018-07-11T01:42:47.422Z,4.00
2018-07-11T01:43:47.404Z,4.00
2018-07-11T01:44:47.390Z,4.00
2018-07-11T01:45:47.371Z,4.00
2018-07-11T01:46:47.354Z,4.00
2018-07-11T01:47:47.339Z,4.00
2018-07-11T01:48:47.324Z,4.00
2018-07-11T01:49:47.306Z,4.00
2018-07-11T01:50:47.290Z,4.00
2018-07-11T01:51:47.272Z,4.00
2018-07-11T01:52:47.256Z,4.00
2018-07-11T01:53:47.239Z,4.00
2018-07-11T01:54:47.222Z,4.00
2018-07-11T01:55:47.206Z,4.00
2018-07-11T01:56:47.190Z,4.00
2018-07-11T01:57:47.173Z,4.00
2018-07-11T01:58:47.158Z,4.00
2018-07-11T01:59:47.140Z,4.00
2018-07-11T02:00:47.123Z,4.00
2018-07-11T02:01:47.105Z,4.00
2018-07-11T02:02:47.091Z,4.00
2018-07-11T02:03:47.075Z,4.00
2018-07-11T02:04:47.057Z,4.00
2018-07-11T02:05:47.041Z,4.00
2018-07-11T02:06:47.024Z,4.00
2018-07-11T02:07:47.009Z,4.00
2018-07-11T02:08:46.991Z,4.00
2018-07-11T02:09:46.982Z,4.00
2018-07-11T02:10:46.958Z,4.00
2018-07-11T02:11:46.951Z,4.00
2018-07-11T02:12:46.931Z,4.00
2018-07-11T02:13:46.907Z,4.00
2018-07-11T02:14:46.891Z,4.00
2018-07-11T02:15:46.875Z,4.00
2018-07-11T02:16:46.864Z,4.00
2018-07-11T02:17:46.839Z,4.00
2018-07-11T02:18:46.832Z,4.00
2018-07-11T02:19:46.816Z,4.00
2018-07-11T02:20:46.800Z,4.00
2018-07-11T02:21:46.782Z,4.00
2018-07-11T02:22:46.757Z,4.00
2018-07-11T02:23:46.742Z,4.00
2018-07-11T02:24:46.721Z,4.00
2018-07-11T02:25:46.715Z,4.00
2018-07-11T02:26:46.689Z,4.00
2018-07-11T02:27:46.671Z,8.00
2018-07-11T02:28:46.655Z,8.00
2018-07-11T02:29:46.639Z,8.00
2018-07-11T02:30:46.622Z,8.00
2018-07-11T02:31:46.605Z,8.00
2018-07-11T02:32:46.596Z,4.00
2018-07-11T02:33:46.572Z,4.00
2018-07-11T02:34:46.553Z,4.00
2018-07-11T02:35:46.539Z,4.00
2018-07-11T02:36:46.521Z,4.00
2018-07-11T02:37:46.508Z,4.00
2018-07-11T02:38:46.489Z,4.00
2018-07-11T02:39:46.471Z,4.00
2018-07-11T02:40:46.454Z,8.00
2018-07-11T02:41:46.434Z,8.00
2018-07-11T02:42:46.426Z,8.00
2018-07-11T02:43:46.402Z,8.00
2018-07-11T02:44:46.385Z,4.00
2018-07-11T02:45:46.368Z,8.00
2018-07-11T02:46:46.350Z,8.00
2018-07-11T02:47:46.333Z,12.00
2018-07-11T02:48:46.325Z,8.00
2018-07-11T02:49:46.301Z,12.00
2018-07-11T02:50:46.285Z,8.00
2018-07-11T02:51:46.266Z,12.00
2018-07-11T02:52:46.254Z,12.00
2018-07-11T02:53:46.232Z,16.00
2018-07-11T02:54:46.213Z,16.00
2018-07-11T02:55:46.197Z,16.00
2018-07-11T02:56:46.180Z,20.00
2018-07-11T02:57:46.169Z,20.00
2018-07-11T02:58:46.147Z,24.00
2018-07-11T02:59:46.129Z,28.00
2018-07-11T03:00:46.112Z,28.00
2018-07-11T03:01:46.100Z,32.00
2018-07-11T03:02:46.081Z,32.00
2018-07-11T03:03:46.061Z,36.00
2018-07-11T03:04:46.045Z,40.00
2018-07-11T03:05:46.083Z,44.00
2018-07-11T03:06:46.010Z,48.00
2018-07-11T03:07:45.993Z,52.00
2018-07-11T03:08:45.977Z,60.00
2018-07-11T03:09:45.959Z,64.00
2018-07-11T03:10:45.943Z,72.00
2018-07-11T03:11:45.931Z,76.00
2018-07-11T03:12:45.907Z,84.00
2018-07-11T03:13:45.889Z,92.00
2018-07-11T03:14:45.875Z,100.00
2018-07-11T03:15:45.860Z,108.00
2018-07-11T03:16:45.839Z,116.00
2018-07-11T03:17:45.828Z,124.00
2018-07-11T03:18:45.804Z,132.00
2018-07-11T03:19:45.788Z,148.00
2018-07-11T03:20:45.770Z,156.00
2018-07-11T03:21:45.761Z,164.00
2018-07-11T03:22:45.741Z,176.00
2018-07-11T03:23:45.722Z,188.00
2018-07-11T03:24:45.706Z,204.00
2018-07-11T03:25:45.685Z,216.00
2018-07-11T03:26:45.668Z,228.00
2018-07-11T03:27:45.658Z,244.00
2018-07-11T03:28:45.634Z,252.00
2018-07-11T03:29:45.616Z,260.00
2018-07-11T03:30:45.601Z,276.00
2018-07-11T03:31:45.586Z,288.00
2018-07-11T03:32:45.574Z,300.00
2018-07-11T03:33:45.548Z,316.00
2018-07-11T03:34:45.536Z,332.00
2018-07-11T03:35:45.515Z,348.00
2018-07-11T03:36:45.498Z,368.00
2018-07-11T03:37:45.484Z,388.00
2018-07-11T03:38:45.461Z,412.00
2018-07-11T03:39:45.445Z,444.00
2018-07-11T03:40:45.428Z,484.00
2018-07-11T03:41:45.417Z,524.00
2018-07-11T03:42:45.400Z,588.00
2018-07-11T03:43:45.431Z,652.00
2018-07-11T03:44:45.361Z,720.00
2018-07-11T03:45:45.345Z,764.00
2018-07-11T03:46:45.325Z,784.00
2018-07-11T03:47:45.314Z,756.00
2018-07-11T03:48:45.291Z,696.00
2018-07-11T03:49:45.273Z,660.00
2018-07-11T03:50:45.257Z,660.00
2018-07-11T03:51:45.241Z,672.00
2018-07-11T03:52:45.224Z,684.00
2018-07-11T03:53:45.276Z,700.00
2018-07-11T03:54:45.188Z,728.00
2018-07-11T03:55:45.171Z,756.00
2018-07-11T03:56:45.155Z,776.00
2018-07-11T03:57:45.138Z,776.00
2018-07-11T03:58:45.118Z,776.00
2018-07-11T03:59:45.114Z,784.00
2018-07-11T04:00:45.085Z,788.00
2018-07-11T04:01:45.067Z,796.00
2018-07-11T04:02:45.050Z,812.00
2018-07-11T04:03:45.035Z,824.00
2018-07-11T04:04:45.053Z,840.00
2018-07-11T04:05:44.999Z,864.00
2018-07-11T04:06:44.981Z,896.00
2018-07-11T04:07:44.973Z,928.00
2018-07-11T04:08:44.947Z,964.00
2018-07-11T04:09:44.931Z,1008.00
2018-07-11T04:10:44.922Z,1056.00
2018-07-11T04:11:44.897Z,1108.00
2018-07-11T04:12:44.880Z,1156.00
2018-07-11T04:13:44.869Z,1212.00
2018-07-11T04:14:44.843Z,1256.00
2018-07-11T04:15:44.827Z,1300.00
2018-07-11T04:16:44.812Z,1328.00
2018-07-11T04:17:44.792Z,1340.00
2018-07-11T04:18:44.776Z,1344.00
2018-07-11T04:19:44.759Z,1320.00
2018-07-11T04:20:44.749Z,1308.00
2018-07-11T04:21:44.731Z,1300.00
2018-07-11T04:22:44.707Z,1328.00
2018-07-11T04:23:44.689Z,1384.00
2018-07-11T04:24:44.674Z,1460.00
2018-07-11T04:25:44.665Z,1512.00
2018-07-11T04:26:44.640Z,1548.00
2018-07-11T04:27:44.623Z,1540.00
2018-07-11T04:28:44.653Z,1504.00
2018-07-11T04:29:44.601Z,1460.00
2018-07-11T04:30:44.570Z,1424.00
2018-07-11T04:31:44.553Z,1404.00
2018-07-11T04:32:44.537Z,1396.00
2018-07-11T04:33:44.520Z,1416.00
2018-07-11T04:34:44.506Z,1460.00
2018-07-11T04:35:44.494Z,1524.00
2018-07-11T04:36:44.485Z,1604.00
2018-07-11T04:37:44.451Z,1712.00
2018-07-11T04:38:44.435Z,1808.00
2018-07-11T04:39:44.424Z,1852.00
2018-07-11T04:40:44.401Z,1868.00
2018-07-11T04:41:44.385Z,1856.00
2018-07-11T04:42:44.366Z,1828.00
2018-07-11T04:43:44.351Z,1796.00
2018-07-11T04:44:44.334Z,1784.00
2018-07-11T04:45:44.328Z,1824.00
2018-07-11T04:46:44.297Z,1892.00
2018-07-11T04:47:44.280Z,1956.00
2018-07-11T04:48:44.265Z,1988.00
2018-07-11T04:49:44.249Z,1972.00
2018-07-11T04:50:44.229Z,1936.00
2018-07-11T04:51:44.216Z,1864.00
2018-07-11T04:52:44.235Z,1796.00
2018-07-11T04:53:44.179Z,1744.00
2018-07-11T04:54:44.163Z,1720.00
2018-07-11T04:55:44.146Z,1732.00
2018-07-11T04:56:44.130Z,1772.00
2018-07-11T04:57:44.111Z,1824.00
2018-07-11T04:58:44.103Z,1880.00
2018-07-11T04:59:44.079Z,1952.00
2018-07-11T05:00:44.063Z,2036.00
2018-07-11T05:01:44.044Z,2120.00
2018-07-11T05:02:44.025Z,2200.00
2018-07-11T05:03:44.015Z,2276.00
2018-07-11T05:04:44.013Z,2364.00
2018-07-11T05:05:43.975Z,2448.00
2018-07-11T05:06:43.964Z,2524.00
2018-07-11T05:07:43.941Z,2592.00
2018-07-11T05:08:43.924Z,2644.00
2018-07-11T05:09:43.907Z,2720.00
2018-07-11T05:10:43.907Z,2852.00
2018-07-11T05:11:43.875Z,3024.00
2018-07-11T05:12:43.862Z,3200.00
2018-07-11T05:13:43.845Z,3412.00
2018-07-11T05:14:43.822Z,3656.00
2018-07-11T05:15:43.806Z,3984.00
2018-07-11T05:16:43.790Z,4320.00
2018-07-11T05:17:43.771Z,4588.00
2018-07-11T05:18:43.754Z,4840.00
2018-07-11T05:19:43.739Z,5012.00
2018-07-11T05:20:43.731Z,5148.00
2018-07-11T05:21:43.712Z,5196.00
2018-07-11T05:22:43.688Z,5144.00
2018-07-11T05:23:43.678Z,5088.00
2018-07-11T05:24:43.657Z,5052.00
2018-07-11T05:25:43.636Z,5064.00
2018-07-11T05:26:43.619Z,5088.00
2018-07-11T05:27:43.641Z,5104.00
2018-07-11T05:28:43.587Z,5124.00
2018-07-11T05:29:43.570Z,5232.00
2018-07-11T05:30:43.552Z,5280.00
2018-07-11T05:31:43.537Z,5384.00
2018-07-11T05:32:43.520Z,5492.00
2018-07-11T05:33:43.504Z,5596.00
2018-07-11T05:34:43.491Z,5744.00
2018-07-11T05:35:43.471Z,5940.00
2018-07-11T05:36:43.460Z,6116.00
2018-07-11T05:37:43.437Z,6724.00
2018-07-11T05:38:43.422Z,7016.00
2018-07-11T05:39:43.405Z,7804.00
2018-07-11T05:40:43.390Z,8500.00
2018-07-11T05:41:43.372Z,7440.00
2018-07-11T05:42:43.357Z,7132.00
2018-07-11T05:43:43.349Z,7756.00
2018-07-11T05:44:43.324Z,19264.00
2018-07-11T05:45:43.307Z,38944.00
2018-07-11T05:46:43.293Z,51008.00
2018-07-11T05:47:43.283Z,47360.00
2018-07-11T05:48:43.267Z,40960.00
2018-07-11T05:49:43.245Z,40192.00
2018-07-11T05:50:43.229Z,43424.00
2018-07-11T05:51:43.225Z,22176.00
2018-07-11T05:52:43.202Z,10168.00
2018-07-11T05:53:43.191Z,9148.00
2018-07-11T05:54:43.175Z,9212.00
2018-07-11T05:55:43.218Z,8536.00
2018-07-11T05:56:43.151Z,7760.00
2018-07-11T05:57:43.147Z,7184.00
2018-07-11T05:58:43.117Z,6764.00
2018-07-11T05:59:43.109Z,6216.00
2018-07-11T06:00:43.092Z,5776.00
2018-07-11T06:01:43.077Z,5504.00
2018-07-11T06:02:43.082Z,5316.00
2018-07-11T06:03:43.051Z,5288.00
2018-07-11T06:04:43.035Z,5348.00
2018-07-11T06:05:43.025Z,5596.00
2018-07-11T06:06:43.015Z,6040.00
2018-07-11T06:07:42.993Z,6708.00
2018-07-11T06:08:42.980Z,7412.00
2018-07-11T06:09:42.967Z,7924.00
2018-07-11T06:10:42.966Z,8156.00
2018-07-11T06:11:42.952Z,8680.00
2018-07-11T06:12:42.925Z,8764.00
2018-07-11T06:13:43.012Z,9092.00
2018-07-11T06:14:42.897Z,10216.00
2018-07-11T06:15:42.883Z,11052.00
2018-07-11T06:16:42.871Z,10528.00
2018-07-11T06:17:42.895Z,9648.00
2018-07-11T06:18:42.848Z,9288.00
2018-07-11T06:19:42.825Z,9032.00
2018-07-11T06:20:42.810Z,8668.00
2018-07-11T06:21:42.796Z,8292.00
2018-07-11T06:22:42.780Z,7904.00
2018-07-11T06:23:42.768Z,7604.00
2018-07-11T06:24:42.754Z,7444.00
2018-07-11T06:25:42.739Z,7444.00
2018-07-11T06:26:42.726Z,7808.00
2018-07-11T06:27:42.724Z,8484.00
2018-07-11T06:28:42.698Z,8756.00
2018-07-11T06:29:42.682Z,8488.00
2018-07-11T06:30:42.668Z,8328.00
2018-07-11T06:31:42.653Z,8772.00
2018-07-11T06:32:42.640Z,9884.00
2018-07-11T06:33:42.635Z,10980.00
2018-07-11T06:34:42.613Z,11136.00
2018-07-11T06:35:42.596Z,10932.00
2018-07-11T06:36:42.584Z,11920.00
2018-07-11T06:37:42.568Z,13832.00
2018-07-11T06:38:42.564Z,14896.00
2018-07-11T06:39:42.540Z,15504.00
2018-07-11T06:40:42.534Z,16800.00
2018-07-11T06:41:42.511Z,18016.00
2018-07-11T06:42:42.499Z,17568.00
2018-07-11T06:43:42.483Z,17056.00
2018-07-11T06:44:42.471Z,16304.00
2018-07-11T06:45:42.466Z,17088.00
2018-07-11T06:46:42.441Z,19968.00
2018-07-11T06:47:42.429Z,25568.00
2018-07-11T06:48:42.416Z,24704.00
2018-07-11T06:49:42.402Z,21760.00
2018-07-11T06:50:42.387Z,22688.00
2018-07-11T06:51:42.375Z,27424.00
2018-07-11T06:52:42.370Z,33248.00
2018-07-11T06:53:42.360Z,23744.00
2018-07-11T06:54:42.334Z,20000.00
2018-07-11T06:55:42.329Z,19424.00
2018-07-11T06:56:42.307Z,20800.00
2018-07-11T06:57:42.417Z,32480.00
2018-07-11T06:58:42.289Z,29216.00
2018-07-11T06:59:42.276Z,38080.00
2018-07-11T07:00:42.256Z,37792.00
2018-07-11T07:01:42.243Z,28320.00
2018-07-11T07:02:42.239Z,33888.00
2018-07-11T07:03:42.220Z,35904.00
2018-07-11T07:04:42.207Z,27072.00
2018-07-11T07:05:42.197Z,19616.00
2018-07-11T07:06:42.202Z,17120.00
2018-07-11T07:07:42.174Z,16608.00
2018-07-11T07:08:42.161Z,17632.00
2018-07-11T07:09:42.150Z,19200.00
2018-07-11T07:10:42.151Z,25152.00
2018-07-11T07:11:42.129Z,21344.00
2018-07-11T07:12:42.118Z,21056.00
2018-07-11T07:13:42.115Z,21664.00
2018-07-11T07:14:42.100Z,22592.00
2018-07-11T07:15:42.085Z,22976.00
2018-07-11T07:16:42.074Z,23296.00
2018-07-11T07:17:42.064Z,23392.00
2018-07-11T07:18:42.055Z,25696.00
2018-07-11T07:19:42.042Z,26592.00
2018-07-11T07:20:42.037Z,32992.00
2018-07-11T07:21:42.019Z,31776.00
2018-07-11T07:22:42.010Z,20288.00
2018-07-11T07:23:42.000Z,18336.00
2018-07-11T07:24:41.991Z,19264.00
2018-07-11T07:25:41.978Z,17920.00
2018-07-11T07:26:41.973Z,20608.00
2018-07-11T07:27:41.958Z,19456.00
2018-07-11T07:28:41.954Z,18080.00
2018-07-11T07:29:41.936Z,18784.00
2018-07-11T07:30:41.928Z,16896.00
2018-07-11T07:31:41.917Z,14976.00
2018-07-11T07:32:41.907Z,13232.00
2018-07-11T07:33:41.895Z,12136.00
2018-07-11T07:34:41.960Z,11348.00
2018-07-11T07:35:41.877Z,11008.00
2018-07-11T07:36:41.876Z,10408.00
2018-07-11T07:37:41.853Z,9628.00
2018-07-11T07:38:41.842Z,8960.00
2018-07-11T07:39:41.830Z,8572.00
2018-07-11T07:40:41.818Z,8328.00
2018-07-11T07:41:41.815Z,8104.00
2018-07-11T07:42:41.805Z,7948.00
2018-07-11T07:43:41.804Z,7872.00
2018-07-11T07:44:41.776Z,7932.00
2018-07-11T07:45:41.764Z,8112.00
2018-07-11T07:46:41.754Z,8340.00
2018-07-11T07:47:41.740Z,8660.00
2018-07-11T07:48:41.729Z,9032.00
2018-07-11T07:49:41.721Z,9440.00
2018-07-11T07:50:41.705Z,9976.00
2018-07-11T07:51:41.695Z,10724.00
2018-07-11T07:52:41.683Z,11676.00
2018-07-11T07:53:41.679Z,12508.00
2018-07-11T07:54:41.657Z,13000.00
2018-07-11T07:55:41.645Z,13292.00
2018-07-11T07:56:41.633Z,13820.00
2018-07-11T07:57:41.621Z,14256.00
2018-07-11T07:58:41.608Z,14932.00
2018-07-11T07:59:41.597Z,16004.00
2018-07-11T08:00:41.586Z,17024.00
2018-07-11T08:01:41.572Z,17792.00
2018-07-11T08:02:41.562Z,18144.00
2018-07-11T08:03:41.581Z,16296.00
2018-07-11T08:04:41.539Z,14520.00
2018-07-11T08:05:41.532Z,12984.00
2018-07-11T08:06:41.515Z,12028.00
2018-07-11T08:07:41.509Z,11316.00
2018-07-11T08:08:41.506Z,10920.00
2018-07-11T08:09:41.478Z,10900.00
2018-07-11T08:10:41.468Z,11088.00
2018-07-11T08:11:41.456Z,11424.00
2018-07-11T08:12:41.510Z,11848.00
2018-07-11T08:13:41.432Z,12428.00
2018-07-11T08:14:41.419Z,13356.00
2018-07-11T08:15:41.408Z,14084.00
2018-07-11T08:16:41.401Z,14624.00
2018-07-11T08:17:41.387Z,14712.00
2018-07-11T08:18:41.372Z,14480.00
2018-07-11T08:19:41.362Z,14336.00
2018-07-11T08:20:41.360Z,14960.00
2018-07-11T08:21:41.346Z,16508.00
2018-07-11T08:22:41.326Z,18336.00
2018-07-11T08:23:41.322Z,19392.00
2018-07-11T08:24:41.304Z,19488.00
2018-07-11T08:25:41.290Z,18336.00
2018-07-11T08:26:41.380Z,16832.00
2018-07-11T08:27:41.269Z,16864.00
2018-07-11T08:28:41.275Z,17056.00
2018-07-11T08:29:41.256Z,16648.00
2018-07-11T08:30:41.234Z,16520.00
2018-07-11T08:31:41.224Z,16128.00
2018-07-11T08:32:41.210Z,14796.00
2018-07-11T08:33:41.206Z,13404.00
2018-07-11T08:34:41.286Z,11080.00
2018-07-11T08:35:41.176Z,10752.00
2018-07-11T08:36:41.164Z,11964.00
2018-07-11T08:37:41.151Z,11088.00
2018-07-11T08:38:41.140Z,10448.00
2018-07-11T08:39:41.138Z,10576.00
2018-07-11T08:40:41.120Z,9212.00
2018-07-11T08:41:41.115Z,8420.00
2018-07-11T08:42:41.102Z,7476.00
2018-07-11T08:43:41.086Z,6728.00
2018-07-11T08:44:41.081Z,5416.00
2018-07-11T08:45:41.060Z,5200.00
2018-07-11T08:46:41.049Z,5552.00
2018-07-11T08:47:41.058Z,5900.00
2018-07-11T08:48:41.026Z,6424.00
2018-07-11T08:49:41.014Z,6796.00
2018-07-11T08:50:41.001Z,6948.00
2018-07-11T08:51:40.993Z,7180.00
2018-07-11T08:52:40.984Z,7216.00
2018-07-11T08:53:41.033Z,6580.00
2018-07-11T08:54:40.956Z,6300.00
2018-07-11T08:55:40.942Z,5828.00
2018-07-11T08:56:40.931Z,5792.00
2018-07-11T08:57:40.917Z,5652.00
2018-07-11T08:58:40.904Z,4868.00
2018-07-11T08:59:40.900Z,4208.00
2018-07-11T09:00:40.894Z,4116.00
2018-07-11T09:01:40.870Z,3820.00
2018-07-11T09:02:40.866Z,3956.00
2018-07-11T09:03:40.853Z,4052.00
2018-07-11T09:04:40.852Z,4764.00
2018-07-11T09:05:40.825Z,5804.00
2018-07-11T09:06:40.805Z,5740.00
2018-07-11T09:07:40.795Z,6188.00
2018-07-11T09:08:40.783Z,5976.00
2018-07-11T09:09:40.769Z,5172.00
2018-07-11T09:10:40.764Z,3724.00
2018-07-11T09:11:40.749Z,2284.00
2018-07-11T09:12:40.731Z,1676.00
2018-07-11T09:13:40.720Z,1596.00
2018-07-11T09:14:40.708Z,1660.00
2018-07-11T09:15:40.693Z,1748.00
2018-07-11T09:16:40.680Z,1728.00
2018-07-11T09:17:40.667Z,1748.00
2018-07-11T09:18:40.656Z,1928.00
2018-07-11T09:19:40.643Z,2396.00
2018-07-11T09:20:40.638Z,3012.00
2018-07-11T09:21:40.615Z,3868.00
2018-07-11T09:22:40.602Z,4344.00
2018-07-11T09:23:40.600Z,4344.00
2018-07-11T09:24:40.582Z,4568.00
2018-07-11T09:25:40.566Z,5440.00
2018-07-11T09:26:40.549Z,7388.00
2018-07-11T09:27:40.538Z,9612.00
2018-07-11T09:28:40.523Z,11176.00
2018-07-11T09:29:40.535Z,12196.00
2018-07-11T09:30:40.581Z,12708.00
2018-07-11T09:31:40.490Z,12972.00
2018-07-11T09:32:40.471Z,13168.00
2018-07-11T09:33:40.459Z,13532.00
2018-07-11T09:34:40.448Z,14316.00
2018-07-11T09:35:40.440Z,15328.00
2018-07-11T09:36:40.421Z,16244.00
2018-07-11T09:37:40.526Z,17088.00
2018-07-11T09:38:40.394Z,17184.00
2018-07-11T09:39:40.386Z,16332.00
2018-07-11T09:40:40.369Z,15448.00
2018-07-11T09:41:40.360Z,14776.00
2018-07-11T09:42:40.348Z,14336.00
2018-07-11T09:43:40.334Z,14016.00
2018-07-11T09:44:40.323Z,13644.00
2018-07-11T09:45:40.312Z,13256.00
2018-07-11T09:46:40.317Z,13088.00
2018-07-11T09:47:40.282Z,12932.00
2018-07-11T09:48:40.271Z,12812.00
2018-07-11T09:49:40.259Z,12776.00
2018-07-11T09:50:40.250Z,12940.00
2018-07-11T09:51:40.234Z,13156.00
2018-07-11T09:52:40.222Z,13172.00
2018-07-11T09:53:40.209Z,13148.00
2018-07-11T09:54:40.200Z,13128.00
2018-07-11T09:55:40.186Z,13124.00
2018-07-11T09:56:40.173Z,12820.00
2018-07-11T09:57:40.192Z,12432.00
2018-07-11T09:58:40.149Z,12224.00
2018-07-11T09:59:40.139Z,12072.00
2018-07-11T10:00:40.143Z,11732.00
2018-07-11T10:01:40.115Z,11152.00
2018-07-11T10:02:40.102Z,10584.00
2018-07-11T10:03:40.091Z,10088.00
2018-07-11T10:04:40.083Z,9596.00
2018-07-11T10:05:40.068Z,9080.00
2018-07-11T10:06:40.065Z,8308.00
2018-07-11T10:07:40.045Z,7332.00
2018-07-11T10:08:40.035Z,6616.00
2018-07-11T10:09:40.021Z,6228.00
2018-07-11T10:10:40.009Z,6144.00
2018-07-11T10:11:39.996Z,6208.00
2018-07-11T10:12:39.990Z,6152.00
2018-07-11T10:13:39.980Z,6288.00
2018-07-11T10:14:39.962Z,6564.00
2018-07-11T10:15:39.952Z,6364.00
2018-07-11T10:16:39.946Z,5724.00
2018-07-11T10:17:39.925Z,5332.00
2018-07-11T10:18:39.923Z,4968.00
2018-07-11T10:19:39.903Z,4588.00
2018-07-11T10:20:39.895Z,4628.00
2018-07-11T10:21:39.927Z,4888.00
2018-07-11T10:22:39.876Z,5296.00
2018-07-11T10:23:39.856Z,6196.00
2018-07-11T10:24:39.843Z,7556.00
2018-07-11T10:25:39.830Z,8028.00
2018-07-11T10:26:39.821Z,7504.00
2018-07-11T10:27:39.805Z,7440.00
2018-07-11T10:28:39.793Z,8516.00
2018-07-11T10:29:39.779Z,9520.00
2018-07-11T10:30:39.768Z,9356.00
2018-07-11T10:31:39.757Z,8400.00
2018-07-11T10:32:39.744Z,7520.00
2018-07-11T10:33:39.789Z,7008.00
2018-07-11T10:34:39.721Z,7156.00
2018-07-11T10:35:39.710Z,7396.00
2018-07-11T10:36:39.696Z,6716.00
2018-07-11T10:37:39.685Z,6204.00
2018-07-11T10:38:39.681Z,6020.00
2018-07-11T10:39:39.727Z,6260.00
2018-07-11T10:40:39.657Z,6048.00
2018-07-11T10:41:39.643Z,6416.00
2018-07-11T10:42:39.639Z,6736.00
2018-07-11T10:43:39.617Z,7572.00
2018-07-11T10:44:39.607Z,8448.00
2018-07-11T10:45:39.596Z,9252.00
2018-07-11T10:46:39.574Z,10888.00
2018-07-11T10:47:39.562Z,12980.00
2018-07-11T10:48:39.553Z,14416.00
2018-07-11T10:49:39.539Z,14844.00
2018-07-11T10:50:39.598Z,15092.00
2018-07-11T10:51:39.514Z,15364.00
2018-07-11T10:52:39.511Z,14488.00
2018-07-11T10:53:39.490Z,13616.00
2018-07-11T10:54:39.478Z,13072.00
2018-07-11T10:55:39.475Z,12124.00
2018-07-11T10:56:39.453Z,10760.00
2018-07-11T10:57:39.559Z,9504.00
2018-07-11T10:58:39.430Z,8728.00
2018-07-11T10:59:39.420Z,8216.00
2018-07-11T11:00:39.470Z,7976.00
2018-07-11T11:01:39.393Z,8016.00
2018-07-11T11:02:39.390Z,7420.00
2018-07-11T11:03:39.379Z,5624.00
2018-07-11T11:04:39.354Z,4048.00
2018-07-11T11:05:39.346Z,3036.00
2018-07-11T11:06:39.332Z,2752.00
2018-07-11T11:07:39.326Z,2876.00
2018-07-11T11:08:39.322Z,2764.00
2018-07-11T11:09:39.302Z,2640.00
2018-07-11T11:10:39.292Z,2780.00
2018-07-11T11:11:39.270Z,3392.00
2018-07-11T11:12:39.280Z,4684.00
2018-07-11T11:13:39.246Z,4860.00
2018-07-11T11:14:39.284Z,4244.00
2018-07-11T11:15:39.224Z,4072.00
2018-07-11T11:16:39.210Z,3288.00
2018-07-11T11:17:39.198Z,3108.00
2018-07-11T11:18:39.185Z,3772.00
2018-07-11T11:19:39.175Z,3204.00
2018-07-11T11:20:39.159Z,2968.00
2018-07-11T11:21:39.146Z,3104.00
2018-07-11T11:22:39.137Z,2824.00
2018-07-11T11:23:39.127Z,2900.00
2018-07-11T11:24:39.116Z,3144.00
2018-07-11T11:25:39.125Z,2376.00
2018-07-11T11:26:39.090Z,1596.00
2018-07-11T11:27:39.077Z,1876.00
2018-07-11T11:28:39.059Z,2744.00
2018-07-11T11:29:39.042Z,3272.00
2018-07-11T11:30:39.029Z,5388.00
2018-07-11T11:31:39.016Z,5524.00
2018-07-11T11:32:39.005Z,5304.00
2018-07-11T11:33:38.996Z,5208.00
2018-07-11T11:34:38.989Z,5380.00
2018-07-11T11:35:39.028Z,5540.00
2018-07-11T11:36:38.956Z,5824.00
2018-07-11T11:37:38.939Z,5940.00
2018-07-11T11:38:38.940Z,5520.00
2018-07-11T11:39:38.935Z,5024.00
2018-07-11T11:40:38.900Z,4068.00
2018-07-11T11:41:39.007Z,3056.00
2018-07-11T11:42:38.918Z,2544.00
2018-07-11T11:43:38.859Z,2440.00
2018-07-11T11:44:38.849Z,2692.00
2018-07-11T11:45:38.831Z,3364.00
2018-07-11T11:46:38.824Z,3644.00
2018-07-11T11:47:38.805Z,3116.00
2018-07-11T11:48:38.793Z,3436.00
2018-07-11T11:49:38.780Z,4644.00
2018-07-11T11:50:38.766Z,5452.00
2018-07-11T11:51:38.751Z,5864.00
2018-07-11T11:52:38.738Z,6024.00
2018-07-11T11:53:38.725Z,5972.00
2018-07-11T11:54:38.714Z,6440.00
2018-07-11T11:55:38.703Z,6308.00
2018-07-11T11:56:38.688Z,7116.00
2018-07-11T11:57:38.672Z,7684.00
2018-07-11T11:58:38.704Z,7576.00
2018-07-11T11:59:38.645Z,7220.00
2018-07-11T12:00:38.645Z,6880.00
2018-07-11T12:01:38.640Z,6556.00
2018-07-11T12:02:38.627Z,6256.00
2018-07-11T12:03:38.593Z,5936.00
2018-07-11T12:04:38.579Z,5668.00
2018-07-11T12:05:38.565Z,5480.00
2018-07-11T12:06:38.562Z,5408.00
2018-07-11T12:07:38.543Z,5348.00
2018-07-11T12:08:38.532Z,5428.00
2018-07-11T12:09:38.512Z,5516.00
2018-07-11T12:10:38.499Z,5608.00
2018-07-11T12:11:38.490Z,5680.00
2018-07-11T12:12:38.486Z,5852.00
2018-07-11T12:13:38.460Z,5940.00
2018-07-11T12:14:38.460Z,5992.00
2018-07-11T12:15:38.436Z,5972.00
2018-07-11T12:16:38.425Z,5764.00
2018-07-11T12:17:38.409Z,5468.00
2018-07-11T12:18:38.395Z,5416.00
2018-07-11T12:19:38.380Z,5688.00